sheboyganpress.com alexa rank chart, sheboyganpress.com alexa rank daily changes

sheboyganpress.com alexa rank chart, sheboyganpress.com alexa rank daily changes

sheboyganpress.com
Actual rank:
398 951

RANK HISTORY

Date Rank Diff
2017/09/22 398 951 -7 478
2017/09/20 406 429 +4 570
2017/09/19 401 859 +1 264
2017/09/18 400 595 +3 715
2017/09/17 396 880 -1 469
2017/09/16 398 349 -2 407
2017/09/15 400 756 -1 166
2017/09/14 401 922 +3 856
2017/09/13 398 066 -12 193
2017/09/12 410 259 -3 682
2017/09/11 413 941 +2 917
2017/09/10 411 024 +6 200
2017/09/09 404 824 +5 952
2017/09/08 398 872 -979
2017/09/07 399 851 +19 090
2017/09/06 380 761 -1 294
2017/09/05 382 055 +3 110
2017/09/04 378 945 -2 505
2017/09/03 381 450 -578
2017/09/02 382 028 +4 718
2017/09/01 377 310 +10 792
2017/08/31 366 518 +2 799
2017/08/30 363 719 +12 849
2017/08/29 350 870 +13 475
2017/08/28 337 395 -4 376
2017/08/27 341 771 +11 159
2017/08/26 330 612 +5 277
2017/08/25 325 335 -16 766
2017/08/24 342 101 +9 447
2017/08/23 332 654 +7 523
2017/08/22 325 131 +4 980
2017/08/21 320 151 +3 845
2017/08/20 316 306 +5 949
2017/08/19 310 357 +11 785
2017/08/18 298 572 +3 442
2017/08/17 295 130 -1 092
2017/08/16 296 222 +1 398
2017/08/15 294 824 +1 851
2017/08/14 292 973 +5 090
2017/08/13 287 883 +2 712
2017/08/12 285 171 +3 247
2017/08/11 281 924 +886
2017/08/10 281 038 -6 732
2017/08/09 287 770 +5 678
2017/08/08 282 092 +3 162
2017/08/07 278 930 +1 208
2017/08/06 277 722 -986
2017/08/05 278 708 -5 419
2017/08/04 284 127 +9 923
2017/08/03 274 204 +3 726
2017/08/02 270 478 +6 167
2017/08/01 264 311 +712
2017/07/31 263 599 +3 988
2017/07/30 259 611 -1 782
2017/07/29 261 393 +824
2017/07/28 260 569 +4 812
2017/07/27 255 757 -2 505
2017/07/26 258 262 +1 081
2017/07/25 257 181 +3 930
2017/07/24 253 251

WIDGET FOR YOUR SITE

DOMAINS WITH THE NEAREST RANK

Domain Rank
worldclips.ru 398 946
creativegan.net 398 947
lostartpress.com 398 948
azatliq.org 398 949
kghm.com 398 950
sheboyganpress.com 398 951
oabi.pw 398 952
lazienkowy.pl 398 953
paypal-apps.com 398 954
nagasaon4d.com 398 955
healthshield.co.uk 398 956

DOMAINS WITH THE NEAREST RANK BY TLD .com

Domain Rank
givingfuel.com 398 936
onlinefinancialsuccessstory.com 398 937
jobs4ksa.com 398 943
lostartpress.com 398 948
kghm.com 398 950
sheboyganpress.com 398 951
paypal-apps.com 398 954
nagasaon4d.com 398 955
betssongroup.com 398 958
mortalkombat.com 398 959
colorkinetics.com 398 960